createdAt,value
2018-04-28T00:00:48.514Z,53.65
2018-04-28T00:03:16.250Z,53.45
2018-04-28T00:05:43.852Z,52.66
2018-04-28T00:08:11.576Z,52.61
2018-04-28T00:10:39.255Z,52.19
2018-04-28T00:13:06.908Z,52.17
2018-04-28T00:15:34.506Z,54.55
2018-04-28T00:18:02.186Z,56.04
2018-04-28T00:20:29.858Z,55.15
2018-04-28T00:23:01.420Z,54.97
2018-04-28T00:28:54.294Z,55.57
2018-04-28T00:31:25.498Z,55.15
2018-04-28T00:33:54.865Z,54.55
2018-04-28T00:36:25.556Z,54.80
2018-04-28T00:38:59.063Z,54.65
2018-04-28T00:44:25.288Z,54.57
2018-04-28T00:47:07.725Z,54.48
2018-04-28T00:49:36.151Z,53.80
2018-04-28T00:52:03.891Z,53.65
2018-04-28T00:54:33.304Z,53.41
2018-04-28T01:00:48.139Z,55.82
2018-04-28T01:03:15.854Z,57.55
2018-04-28T01:05:49.390Z,56.90
2018-04-28T01:08:24.882Z,56.56
2018-04-28T01:11:09.293Z,56.39
2018-04-28T01:13:41.948Z,56.95
2018-04-28T01:16:09.625Z,59.23
2018-04-28T01:18:47.153Z,60.30
2018-04-28T01:21:18.399Z,60.78
2018-04-28T01:26:53.843Z,58.50
2018-04-28T01:29:22.166Z,58.09
2018-04-28T01:31:55.830Z,57.94
2018-04-28T01:34:24.409Z,57.82
2018-04-28T01:36:53.041Z,57.40
2018-04-28T01:42:37.523Z,57.28
2018-04-28T01:45:14.787Z,57.06
2018-04-28T01:50:43.207Z,56.52
2018-04-28T01:53:10.918Z,56.69
2018-04-28T01:55:40.255Z,56.90
2018-04-28T01:58:07.966Z,57.06
2018-04-28T02:00:44.229Z,56.96
2018-04-28T02:06:35.702Z,57.31
2018-04-28T02:09:06.167Z,56.81
2018-04-28T02:11:40.393Z,57.11
2018-04-28T02:14:15.858Z,57.14
2018-04-28T02:16:45.134Z,57.14
2018-04-28T02:19:16.479Z,57.49
2018-04-28T02:25:13.653Z,57.59
2018-04-28T02:27:47.908Z,57.84
2018-04-28T02:30:16.448Z,57.85
2018-04-28T02:32:50.912Z,58.06
2018-04-28T02:35:22.488Z,57.62
2018-04-28T02:41:00.600Z,56.87
2018-04-28T02:43:29.809Z,57.17
2018-04-28T02:46:06.223Z,57.84
2018-04-28T02:48:51.597Z,57.65
2018-04-28T02:51:29.132Z,57.47
2018-04-28T02:56:59.527Z,56.98
2018-04-28T02:59:32.899Z,57.03
2018-04-28T03:02:01.384Z,56.64
2018-04-28T03:04:37.819Z,56.81
2018-04-28T03:07:10.202Z,56.70
2018-04-28T03:09:46.113Z,56.87
2018-04-28T03:12:15.319Z,57.11
2018-04-28T03:14:43.915Z,57.28
2018-04-28T03:17:12.583Z,57.34
2018-04-28T03:19:44.144Z,57.46
2018-04-28T03:22:16.718Z,57.36
2018-04-28T03:28:09.185Z,57.73
2018-04-28T03:30:40.568Z,57.71
2018-04-28T03:33:15.201Z,58.03
2018-04-28T03:35:55.283Z,57.91
2018-04-28T03:41:32.014Z,60.46
2018-04-28T03:44:08.123Z,59.75
2018-04-28T03:46:37.722Z,59.59
2018-04-28T03:52:15.198Z,59.52
2018-04-28T03:54:42.879Z,59.89
2018-04-28T04:00:25.034Z,62.23
2018-04-28T04:03:04.342Z,62.71
2018-04-28T04:05:37.366Z,62.96
2018-04-28T04:08:19.939Z,62.95
2018-04-28T04:10:49.142Z,62.54
2018-04-28T04:13:22.223Z,62.57
2018-04-28T04:15:59.646Z,62.53
2018-04-28T04:18:36.289Z,62.03
2018-04-28T04:21:09.620Z,61.32
2018-04-28T04:23:44.735Z,60.63
2018-04-28T04:29:44.982Z,59.98
2018-04-28T04:32:21.463Z,59.92
2018-04-28T04:35:06.930Z,59.53
2018-04-28T04:40:37.501Z,61.95
2018-04-28T04:43:13.062Z,64.43
2018-04-28T04:45:54.179Z,65.50
2018-04-28T04:51:29.549Z,64.80
2018-04-28T04:54:07.189Z,63.39
2018-04-28T04:56:41.696Z,61.76
2018-04-28T04:59:27.195Z,59.92
2018-04-28T05:02:05.905Z,60.19
2018-04-28T05:07:39.982Z,57.33
2018-04-28T05:10:18.381Z,56.54
2018-04-28T05:16:31.704Z,53.51
2018-04-28T05:19:06.017Z,55.79
2018-04-28T05:21:54.350Z,55.96
2018-04-28T05:24:31.659Z,52.56
2018-04-28T05:27:01.280Z,52.31
2018-04-28T05:29:48.728Z,51.00
2018-04-28T05:32:24.334Z,49.50
2018-04-28T05:35:03.527Z,48.78
2018-04-28T05:37:37.883Z,48.33
2018-04-28T05:40:17.309Z,48.18
2018-04-28T05:43:05.507Z,47.35
2018-04-28T05:45:45.015Z,47.03
2018-04-28T05:52:04.332Z,46.96
2018-04-28T05:57:58.808Z,46.78
2018-04-28T06:00:38.432Z,46.71
2018-04-28T06:03:14.818Z,46.42
2018-04-28T06:09:21.138Z,47.42
2018-04-28T06:12:07.319Z,44.68
2018-04-28T06:14:46.758Z,44.74
2018-04-28T06:20:40.903Z,43.67
2018-04-28T06:23:08.555Z,42.00
2018-04-28T06:25:36.164Z,42.38
2018-04-28T06:28:03.897Z,42.48
2018-04-28T06:30:31.544Z,42.38
2018-04-28T06:32:59.273Z,42.35
2018-04-28T06:35:26.894Z,42.29
2018-04-28T06:37:54.544Z,42.07
2018-04-28T06:40:22.174Z,41.27
2018-04-28T06:42:49.836Z,41.18
2018-04-28T06:45:17.503Z,41.57
2018-04-28T06:47:45.209Z,40.44
2018-04-28T06:50:12.838Z,39.69
2018-04-28T06:52:40.450Z,37.99
2018-04-28T06:55:08.117Z,38.00
2018-04-28T06:57:35.758Z,37.54
2018-04-28T07:00:03.418Z,37.04
2018-04-28T07:02:31.037Z,37.35
2018-04-28T07:04:58.683Z,36.66
2018-04-28T07:07:26.359Z,35.68
2018-04-28T07:09:54.007Z,34.18
2018-04-28T07:12:21.611Z,34.34
2018-04-28T07:14:49.308Z,32.63
2018-04-28T07:17:16.912Z,32.74
2018-04-28T07:19:44.587Z,32.23
2018-04-28T07:22:12.208Z,32.01
2018-04-28T07:24:39.871Z,31.01
2018-04-28T07:27:07.503Z,31.97
2018-04-28T07:29:35.217Z,31.49
2018-04-28T07:32:02.838Z,31.09
2018-04-28T07:34:30.487Z,30.45
2018-04-28T07:36:58.100Z,27.90
2018-04-28T07:39:25.756Z,28.93
2018-04-28T07:41:53.363Z,28.62
2018-04-28T07:44:21.015Z,27.28
2018-04-28T07:46:48.629Z,26.22
2018-04-28T07:49:16.324Z,26.27
2018-04-28T07:51:43.970Z,27.31
2018-04-28T07:54:11.635Z,24.86
2018-04-28T07:56:39.265Z,25.03
2018-04-28T07:59:06.875Z,22.70
2018-04-28T08:01:34.532Z,24.47
2018-04-28T08:04:02.177Z,28.93
2018-04-28T08:06:29.850Z,33.40
2018-04-28T08:08:57.490Z,31.72
2018-04-28T08:11:25.138Z,29.95
2018-04-28T08:13:52.738Z,32.66
2018-04-28T08:16:20.383Z,30.37
2018-04-28T08:18:47.983Z,29.76
2018-04-28T08:21:15.634Z,31.83
2018-04-28T08:23:43.252Z,31.69
2018-04-28T08:26:10.922Z,31.56
2018-04-28T08:28:38.543Z,31.06
2018-04-28T08:31:06.202Z,30.23
2018-04-28T08:33:33.819Z,30.02
2018-04-28T08:36:01.470Z,31.15
2018-04-28T08:38:29.126Z,31.80
2018-04-28T08:40:56.778Z,31.33
2018-04-28T08:43:24.394Z,31.85
2018-04-28T08:45:52.054Z,31.10
2018-04-28T08:48:19.734Z,28.70
2018-04-28T08:50:47.385Z,29.65
2018-04-28T08:53:15.084Z,29.12
2018-04-28T08:55:42.691Z,28.41
2018-04-28T08:58:10.299Z,31.29
2018-04-28T09:03:36.361Z,30.81
2018-04-28T09:06:04.227Z,31.84
2018-04-28T09:08:31.995Z,28.72
2018-04-28T09:10:59.963Z,28.09
2018-04-28T09:13:27.678Z,29.65
2018-04-28T09:15:55.494Z,33.14
2018-04-28T09:18:26.128Z,31.28
2018-04-28T09:21:00.514Z,34.63
2018-04-28T09:23:28.520Z,34.13
2018-04-28T09:25:56.390Z,32.76
2018-04-28T09:28:24.103Z,31.95
2018-04-28T09:30:51.922Z,32.58
2018-04-28T09:33:19.687Z,31.41
2018-04-28T09:35:47.503Z,27.58
2018-04-28T09:38:15.629Z,29.95
2018-04-28T09:40:46.084Z,31.35
2018-04-28T09:43:13.933Z,32.73
2018-04-28T09:45:41.750Z,31.13
2018-04-28T09:48:09.561Z,26.52
2018-04-28T09:50:37.233Z,27.27
2018-04-28T09:53:08.188Z,28.68
2018-04-28T09:55:39.106Z,22.63
2018-04-28T09:58:13.758Z,28.50
2018-04-28T10:00:57.344Z,32.15
2018-04-28T11:24:05.822Z,26.56
2018-04-28T11:26:33.489Z,27.28
2018-04-28T11:29:01.179Z,27.63
2018-04-28T11:31:28.853Z,29.60
2018-04-28T11:33:56.920Z,30.96
2018-04-28T11:36:24.589Z,29.69
2018-04-28T11:38:52.226Z,27.38
2018-04-28T11:41:19.893Z,26.49
2018-04-28T11:43:47.874Z,25.74
2018-04-28T11:46:15.567Z,26.69
2018-04-28T11:48:43.232Z,28.43
2018-04-28T11:51:10.925Z,27.98
2018-04-28T11:53:38.593Z,29.61
2018-04-28T11:56:09.667Z,29.28
2018-04-28T11:58:37.379Z,29.29
2018-04-28T12:01:05.052Z,29.95
2018-04-28T12:03:32.695Z,29.68
2018-04-28T12:06:00.383Z,30.14
2018-04-28T12:08:28.070Z,29.88
2018-04-28T12:10:56.631Z,29.56
2018-04-28T12:13:31.633Z,28.18
2018-04-28T12:16:03.008Z,27.38
2018-04-28T12:18:33.131Z,27.26
2018-04-28T12:21:03.506Z,25.44
2018-04-28T12:23:31.228Z,25.18
2018-04-28T12:26:01.486Z,26.07
2018-04-28T12:28:33.289Z,25.85
2018-04-28T12:31:04.505Z,24.95
2018-04-28T12:33:35.167Z,24.32
2018-04-28T12:36:03.275Z,26.26
2018-04-28T12:38:34.484Z,28.17
2018-04-28T12:41:06.259Z,27.44
2018-04-28T12:43:40.319Z,30.57
2018-04-28T12:46:08.548Z,29.39
2018-04-28T12:48:36.303Z,28.15
2018-04-28T12:51:04.143Z,27.72
2018-04-28T12:53:32.756Z,27.58
2018-04-28T12:56:02.523Z,29.13
2018-04-28T12:58:34.674Z,28.75
2018-04-28T13:01:02.309Z,28.85
2018-04-28T13:03:30.062Z,28.89
2018-04-28T13:05:57.791Z,28.57
2018-04-28T13:08:25.469Z,27.94
2018-04-28T13:10:53.622Z,28.63
2018-04-28T13:13:24.413Z,28.34
2018-04-28T13:15:55.412Z,29.88
2018-04-28T13:18:26.526Z,29.49
2018-04-28T13:20:55.645Z,30.77
2018-04-28T13:23:23.367Z,29.50
2018-04-28T13:25:51.518Z,29.26
2018-04-28T13:28:19.516Z,31.34
2018-04-28T13:30:51.511Z,31.33
2018-04-28T13:33:22.188Z,30.55
2018-04-28T13:35:54.070Z,30.30
2018-04-28T13:38:22.933Z,29.83
2018-04-28T13:40:50.584Z,30.20
2018-04-28T13:43:18.273Z,29.99
2018-04-28T13:45:45.942Z,29.78
2018-04-28T13:48:13.802Z,29.53
2018-04-28T13:50:42.403Z,29.67
2018-04-28T13:53:10.128Z,29.17
2018-04-28T13:55:37.771Z,29.37
2018-04-28T13:58:05.445Z,29.23
2018-04-28T14:00:33.089Z,29.33
2018-04-28T14:03:00.774Z,28.86
2018-04-28T14:05:29.337Z,29.16
2018-04-28T14:07:57.067Z,28.59
2018-04-28T14:10:25.906Z,28.26
2018-04-28T14:12:55.285Z,28.48
2018-04-28T14:15:23.237Z,28.62
2018-04-28T14:17:53.913Z,28.19
2018-04-28T14:20:21.591Z,28.49
2018-04-28T14:22:49.298Z,28.90
2018-04-28T14:25:19.232Z,28.99
2018-04-28T14:27:47.697Z,29.24
2018-04-28T14:30:15.341Z,28.85
2018-04-28T14:32:43.054Z,29.75
2018-04-28T14:35:10.706Z,30.34
2018-04-28T14:37:38.376Z,29.58
2018-04-28T14:40:06.023Z,29.87
2018-04-28T14:42:41.411Z,29.28
2018-04-28T14:45:09.048Z,30.37
2018-04-28T14:47:36.755Z,29.87
2018-04-28T14:50:04.485Z,30.60
2018-04-28T14:52:32.157Z,30.39
2018-04-28T14:55:03.411Z,30.95
2018-04-28T14:57:35.685Z,30.86
2018-04-28T15:00:03.462Z,32.22
2018-04-28T15:02:32.373Z,32.10
2018-04-28T15:05:00.298Z,31.73
2018-04-28T15:07:27.977Z,32.58
2018-04-28T15:09:55.729Z,32.89
2018-04-28T15:12:23.367Z,33.29
2018-04-28T15:14:55.590Z,33.05
2018-04-28T15:17:23.383Z,33.01
2018-04-28T15:19:55.501Z,36.08
2018-04-28T15:22:26.973Z,35.58
2018-04-28T15:24:54.973Z,38.28
2018-04-28T15:27:22.717Z,42.10
2018-04-28T15:29:52.845Z,40.34
2018-04-28T15:32:25.061Z,44.28
2018-04-28T15:34:53.825Z,46.04
2018-04-28T15:37:25.534Z,45.25
2018-04-28T15:39:54.025Z,42.18
2018-04-28T15:42:21.822Z,42.95
2018-04-28T15:44:51.787Z,44.41
2018-04-28T15:47:19.548Z,42.43
2018-04-28T15:49:49.166Z,43.97
2018-04-28T15:52:21.084Z,42.19
2018-04-28T15:54:52.759Z,43.12
2018-04-28T15:57:20.532Z,41.84
2018-04-28T15:59:50.276Z,40.18
2018-04-28T16:02:22.237Z,39.38
2018-04-28T16:04:53.995Z,39.53
2018-04-28T16:07:29.299Z,39.18
2018-04-28T16:09:58.863Z,40.22
2018-04-28T19:37:14.411Z,64.00
2018-04-28T19:39:44.784Z,62.49
2018-04-28T19:42:14.995Z,62.47
2018-04-28T19:44:45.660Z,62.39
2018-04-28T19:47:13.430Z,61.66
2018-04-28T19:49:41.104Z,62.17
2018-04-28T19:52:09.932Z,62.59
2018-04-28T19:54:39.064Z,62.46
2018-04-28T19:57:07.449Z,61.76
2018-04-28T19:59:35.197Z,62.00
2018-04-28T20:02:08.077Z,62.10
2018-04-28T20:04:35.784Z,62.51
2018-04-28T20:07:03.461Z,63.03
2018-04-28T20:09:32.871Z,63.28
2018-04-28T20:12:02.658Z,62.74
2018-04-28T20:14:30.336Z,61.54
2018-04-28T20:16:59.476Z,61.67
2018-04-28T20:19:28.107Z,61.90
2018-04-28T20:22:07.683Z,62.86
2018-04-28T20:24:47.088Z,63.48
2018-04-28T20:27:15.375Z,62.96
2018-04-28T20:29:44.045Z,62.69
2018-04-28T20:32:11.729Z,62.94
2018-04-28T20:34:39.848Z,63.20
2018-04-28T20:37:09.586Z,62.55
2018-04-28T20:39:40.510Z,61.92
2018-04-28T20:42:11.516Z,60.60
2018-04-28T20:44:40.803Z,62.14
2018-04-28T20:47:17.283Z,63.21
2018-04-28T20:49:45.274Z,64.30
2018-04-28T20:55:07.036Z,66.65
2018-04-28T20:57:37.445Z,65.94
2018-04-28T21:00:07.893Z,65.98
2018-04-28T21:19:50.445Z,63.51
2018-04-28T21:22:18.090Z,64.45
2018-04-28T21:24:45.798Z,64.55
2018-04-28T21:27:13.438Z,64.64
2018-04-28T21:29:41.208Z,64.62
2018-04-28T21:32:08.860Z,64.90
2018-04-28T21:34:36.562Z,64.79
2018-04-28T21:37:04.235Z,63.24
2018-04-28T21:39:31.955Z,63.40
2018-04-28T21:41:59.609Z,63.40
2018-04-28T21:44:27.295Z,63.22
2018-04-28T21:46:54.942Z,62.35
2018-04-28T21:49:22.641Z,62.70
2018-04-28T21:51:50.317Z,61.90
2018-04-28T21:54:17.983Z,62.64
2018-04-28T21:56:45.628Z,62.59
2018-04-28T21:59:13.301Z,62.50
2018-04-28T22:01:40.950Z,64.01
2018-04-28T22:04:08.635Z,63.26
2018-04-28T22:06:36.321Z,62.87
2018-04-28T22:09:04.231Z,63.21
2018-04-28T22:11:31.883Z,64.92
2018-04-28T22:13:59.557Z,64.44
2018-04-28T22:16:27.186Z,63.98
2018-04-28T22:18:54.910Z,64.21
2018-04-28T22:21:22.559Z,64.23
2018-04-28T22:23:50.241Z,64.05
2018-04-28T22:26:17.890Z,63.65
2018-04-28T22:28:45.589Z,63.68
2018-04-28T22:31:13.238Z,63.36
2018-04-28T22:33:40.901Z,63.63
2018-04-28T22:36:08.589Z,62.93
2018-04-28T22:38:36.225Z,63.58
2018-04-28T22:41:03.924Z,63.57
2018-04-28T22:43:31.545Z,63.34
2018-04-28T22:45:59.229Z,63.44
2018-04-28T22:48:26.862Z,63.09
2018-04-28T22:50:54.541Z,63.33
2018-04-28T22:53:22.202Z,63.38
2018-04-28T22:55:49.872Z,63.04
2018-04-28T22:58:17.513Z,63.34
2018-04-28T23:00:45.200Z,63.87
2018-04-28T23:03:12.838Z,63.80
2018-04-28T23:05:40.516Z,63.90
2018-04-28T23:08:08.140Z,64.30
2018-04-28T23:10:35.852Z,65.57
2018-04-28T23:13:03.517Z,65.82
2018-04-28T23:15:31.211Z,65.93
2018-04-28T23:17:58.838Z,65.67
2018-04-28T23:20:26.566Z,65.35
2018-04-28T23:22:54.256Z,65.06
2018-04-28T23:25:21.905Z,64.96
2018-04-28T23:27:49.554Z,65.31
2018-04-28T23:30:17.251Z,65.17
2018-04-28T23:32:44.895Z,65.58
2018-04-28T23:35:12.600Z,65.49
2018-04-28T23:37:40.226Z,65.35
2018-04-28T23:40:07.925Z,65.22
2018-04-28T23:42:35.576Z,65.84
2018-04-28T23:45:03.256Z,65.48
2018-04-28T23:47:30.890Z,65.85
2018-04-28T23:49:58.560Z,65.47
2018-04-28T23:52:26.236Z,65.34
2018-04-28T23:54:53.969Z,65.80
2018-04-28T23:57:21.616Z,65.43
2018-04-28T23:59:49.288Z,64.61
